KAXX

Angel Fire Airport

Angel Fire, New Mexico, USA
METAR KAXX 241215Z AUTO 28020G27KT 10SM -SN BKN020 BKN026 OVC033 M09/M12 A2978 RMK AO2 T10861122
Observed Flight Rules
Feb-24 @ 12:15 UTC (9 minutes ago) Marginal Visual Flight Rules
Wind Visibility Clouds Conditions
280° at 20 knots
 Gusting to 27 knots
10 miles
  • Broken at 2,000' AGL
  • Broken at 2,600' AGL
  • Overcast at 3,300' AGL
  • Light Snow
Temperatures Readings
Current -9°C / 16°F
Dewpoint -12°C / 10°F
Humidity 79%
Altimeter 29.78" Hg
Pressure 1008 hPa
Elevation 2548
METAR KAXX 241215Z AUTO 28020G27KT 10SM -SN BKN020 BKN026 OVC033 M09/M12 A2978 RMK AO2 T10861122
Observed Flight Rules
Feb-24 @ 12:15 UTC
(9 minutes ago)
MVFR
Wind Visibility
280° at 20 knots
 Gusting to 27 knots
10 miles
Clouds
  • Broken at 2,000' AGL
  • Broken at 2,600' AGL
  • Overcast at 3,300' AGL
Conditions
  • Light Snow
Temperature Dewpoint
-9°C / 16°F -12°C / 10°F
Humidity Altimeter Pressure
79% 29.78" Hg 1008 hPa